Time;durP1;ratioP1;P1;durP2;ratioP2;P2;SDS_P1;SDS_P2;PMS_P1;PMS_P2;Temp;Humidity;BMP_temperature;BMP_pressure;BME280_temperature;BME280_humidity;BME280_pressure;Samples;Min_cycle;Max_cycle;Signal;HPM_P1;HPM_P2
2024/03/31 00:00:26;;;;;;;25.17;5.28;;;;;;;;;;5089105;28;20381;-81
2024/03/31 00:02:52;;;;;;;26.97;5.50;;;;;;;;;;5095056;28;20484;-81
2024/03/31 00:05:18;;;;;;;18.38;4.88;;;;;;;;;;5095952;28;20378;-81
2024/03/31 00:07:44;;;;;;;19.17;4.40;;;;;;;;;;5096217;28;20453;-81
2024/03/31 00:10:10;;;;;;;19.45;3.92;;;;;;;;;;5096014;28;20968;-81
2024/03/31 00:12:36;;;;;;;20.08;4.63;;;;;;;;;;5095712;28;20393;-81
2024/03/31 00:15:02;;;;;;;20.55;4.32;;;;;;;;;;5095891;28;20374;-81
2024/03/31 00:17:28;;;;;;;17.20;4.18;;;;;;;;;;5096063;28;20810;-81
2024/03/31 00:19:55;;;;;;;22.48;4.65;;;;;;;;;;5095959;28;20374;-81
2024/03/31 00:22:21;;;;;;;20.67;4.40;;;;;;;;;;5095665;28;20400;-81
2024/03/31 00:24:47;;;;;;;24.13;4.78;;;;;;;;;;5095786;28;20810;-81
2024/03/31 00:27:13;;;;;;;17.20;4.50;;;;;;;;;;5096178;28;20431;-81
2024/03/31 00:29:39;;;;;;;15.68;4.03;;;;;;;;;;5095983;28;20370;-82
2024/03/31 00:32:05;;;;;;;19.00;4.50;;;;;;;;;;5095324;28;20417;-82
2024/03/31 00:34:31;;;;;;;20.30;4.30;;;;;;;;;;5095631;28;20387;-82
2024/03/31 00:36:57;;;;;;;13.90;3.45;;;;;;;;;;5095207;28;20490;-82
2024/03/31 00:39:23;;;;;;;16.00;3.90;;;;;;;;;;5095333;28;20390;-82
2024/03/31 00:41:49;;;;;;;17.67;4.30;;;;;;;;;;5095369;28;20903;-82
2024/03/31 00:44:15;;;;;;;20.48;4.30;;;;;;;;;;5095443;28;20382;-82
2024/03/31 00:46:41;;;;;;;19.02;4.35;;;;;;;;;;5095543;28;20458;-81
2024/03/31 00:49:07;;;;;;;16.65;3.72;;;;;;;;;;5095180;28;20386;-81
2024/03/31 00:51:33;;;;;;;16.75;3.92;;;;;;;;;;5095242;28;20743;-81
2024/03/31 00:53:59;;;;;;;15.85;3.85;;;;;;;;;;5095047;28;20387;-81
2024/03/31 00:56:25;;;;;;;19.85;4.20;;;;;;;;;;5095496;28;20395;-81
2024/03/31 00:58:51;;;;;;;15.82;3.60;;;;;;;;;;5095168;28;20382;-81
2024/03/31 01:01:18;;;;;;;20.10;4.85;;;;;;;;;;5095107;28;20378;-81
2024/03/31 01:03:44;;;;;;;18.50;3.90;;;;;;;;;;5095066;28;20417;-81
2024/03/31 01:06:16;;;;;;;13.70;3.50;;;;;;;;;;5093751;28;20405;-81
2024/03/31 01:08:42;;;;;;;23.38;4.50;;;;;;;;;;5095159;28;20378;-82
2024/03/31 01:11:08;;;;;;;16.35;3.83;;;;;;;;;;5095156;28;20378;-82
2024/03/31 01:13:34;;;;;;;16.50;4.30;;;;;;;;;;5094432;28;20453;-82
2024/03/31 01:16:00;;;;;;;15.95;4.38;;;;;;;;;;5094768;28;20390;-82
2024/03/31 01:18:27;;;;;;;20.23;4.22;;;;;;;;;;5076761;28;20398;-81
2024/03/31 01:20:53;;;;;;;15.80;4.50;;;;;;;;;;5095151;28;20982;-81
2024/03/31 01:23:22;;;;;;;21.38;4.38;;;;;;;;;;5095125;28;20398;-82
2024/03/31 01:25:48;;;;;;;14.02;4.57;;;;;;;;;;5094767;28;20378;-81
2024/03/31 01:28:14;;;;;;;19.27;4.72;;;;;;;;;;5094740;28;20412;-81
2024/03/31 01:30:39;;;;;;;23.13;5.30;;;;;;;;;;5094140;28;20382;-82
2024/03/31 01:33:06;;;;;;;20.65;4.95;;;;;;;;;;5094351;28;20872;-82
2024/03/31 01:35:31;;;;;;;17.70;4.90;;;;;;;;;;5094847;28;20477;-82
2024/03/31 01:37:57;;;;;;;19.63;4.60;;;;;;;;;;5094156;28;20417;-82
2024/03/31 01:40:23;;;;;;;14.73;4.17;;;;;;;;;;5094292;28;20446;-82
2024/03/31 01:42:49;;;;;;;15.95;4.18;;;;;;;;;;5094584;28;20401;-81
2024/03/31 01:45:16;;;;;;;14.80;3.53;;;;;;;;;;5094119;28;20749;-81
2024/03/31 01:47:41;;;;;;;16.17;4.20;;;;;;;;;;5094263;28;20378;-81
2024/03/31 01:50:07;;;;;;;16.85;3.95;;;;;;;;;;5094225;28;20389;-81
2024/03/31 01:52:33;;;;;;;20.20;3.90;;;;;;;;;;5094528;28;20451;-81
2024/03/31 01:54:59;;;;;;;20.05;3.97;;;;;;;;;;5094341;28;20415;-82
2024/03/31 01:57:25;;;;;;;14.63;3.50;;;;;;;;;;5094081;28;20386;-81
2024/03/31 01:59:51;;;;;;;22.58;3.65;;;;;;;;;;5094192;28;20424;-81
2024/03/31 02:02:18;;;;;;;16.73;4.13;;;;;;;;;;5093984;28;20406;-81
2024/03/31 02:04:44;;;;;;;14.20;3.55;;;;;;;;;;5093786;28;20378;-81
2024/03/31 02:07:10;;;;;;;15.50;3.72;;;;;;;;;;5094079;28;20386;-82
2024/03/31 02:09:35;;;;;;;14.10;3.60;;;;;;;;;;5092209;28;20378;-81
2024/03/31 02:12:01;;;;;;;18.67;3.83;;;;;;;;;;5093777;28;20385;-82
2024/03/31 02:14:28;;;;;;;22.30;3.95;;;;;;;;;;5093561;28;20374;-81
2024/03/31 02:16:55;;;;;;;19.13;4.25;;;;;;;;;;5093838;28;20862;-81
2024/03/31 02:19:23;;;;;;;12.93;3.33;;;;;;;;;;5093574;28;20713;-81
2024/03/31 02:21:49;;;;;;;13.30;3.35;;;;;;;;;;5094133;28;20420;-81
2024/03/31 02:24:15;;;;;;;16.83;3.63;;;;;;;;;;5094179;28;20378;-82
2024/03/31 02:26:41;;;;;;;14.40;3.30;;;;;;;;;;5093804;28;20877;-81
2024/03/31 02:29:07;;;;;;;13.45;3.25;;;;;;;;;;5094161;28;20374;-81
2024/03/31 02:31:33;;;;;;;12.10;2.92;;;;;;;;;;5093573;28;20398;-81
2024/03/31 02:33:59;;;;;;;19.25;3.90;;;;;;;;;;5093810;28;20382;-81
2024/03/31 02:36:25;;;;;;;20.45;3.88;;;;;;;;;;5093756;28;20406;-81
2024/03/31 02:38:51;;;;;;;20.52;3.72;;;;;;;;;;5091447;28;20433;-81
2024/03/31 02:41:17;;;;;;;14.57;3.47;;;;;;;;;;5093581;28;20434;-81
2024/03/31 02:43:43;;;;;;;11.65;3.15;;;;;;;;;;5093651;28;20878;-81
2024/03/31 02:46:09;;;;;;;15.00;3.55;;;;;;;;;;5093965;28;20378;-82
2024/03/31 02:48:35;;;;;;;13.10;3.28;;;;;;;;;;5093500;28;20389;-81
2024/03/31 02:51:01;;;;;;;16.27;3.50;;;;;;;;;;5093813;28;20367;-81
2024/03/31 02:53:27;;;;;;;18.27;3.53;;;;;;;;;;5093750;28;20374;-81
2024/03/31 02:55:53;;;;;;;16.25;3.30;;;;;;;;;;5093540;28;20448;-81
2024/03/31 02:58:19;;;;;;;15.48;3.20;;;;;;;;;;5093692;28;20872;-81
2024/03/31 03:00:45;;;;;;;15.52;3.30;;;;;;;;;;5093943;28;20385;-81
2024/03/31 03:03:11;;;;;;;14.05;3.45;;;;;;;;;;5093778;28;20402;-82
2024/03/31 03:05:37;;;;;;;13.75;3.33;;;;;;;;;;5075828;28;20440;-81
2024/03/31 03:08:03;;;;;;;13.00;3.17;;;;;;;;;;5093864;28;20378;-81
2024/03/31 03:10:29;;;;;;;16.48;3.50;;;;;;;;;;5092662;28;20370;-81
2024/03/31 03:12:55;;;;;;;17.17;3.63;;;;;;;;;;5093641;28;20909;-81
2024/03/31 03:15:21;;;;;;;14.65;3.00;;;;;;;;;;5093814;28;20382;-81
2024/03/31 03:17:47;;;;;;;11.30;2.95;;;;;;;;;;5092569;28;20385;-81
2024/03/31 03:20:13;;;;;;;11.00;3.15;;;;;;;;;;5093239;28;20385;-81
2024/03/31 03:22:39;;;;;;;10.80;3.67;;;;;;;;;;5093614;28;20398;-81
2024/03/31 03:25:05;;;;;;;15.45;3.67;;;;;;;;;;5092959;28;20370;-81
2024/03/31 03:27:31;;;;;;;16.80;3.67;;;;;;;;;;5092980;28;20378;-81
2024/03/31 03:29:57;;;;;;;12.93;3.50;;;;;;;;;;5093144;28;20443;-81
2024/03/31 03:32:23;;;;;;;14.40;3.88;;;;;;;;;;5092810;28;20421;-81
2024/03/31 03:34:51;;;;;;;12.45;3.80;;;;;;;;;;5092871;28;20416;-81
2024/03/31 03:37:17;;;;;;;16.63;4.35;;;;;;;;;;5093476;28;20453;-82
2024/03/31 03:39:43;;;;;;;15.70;3.77;;;;;;;;;;5096927;28;20417;-81
2024/03/31 03:42:09;;;;;;;16.55;4.07;;;;;;;;;;5096765;28;20393;-81
2024/03/31 03:44:35;;;;;;;13.05;3.80;;;;;;;;;;5096726;28;20427;-81
2024/03/31 03:47:01;;;;;;;12.30;3.42;;;;;;;;;;5096821;28;20460;-81
2024/03/31 03:49:27;;;;;;;13.07;3.30;;;;;;;;;;5096399;28;20770;-81
2024/03/31 03:51:53;;;;;;;13.68;3.28;;;;;;;;;;5097117;28;20374;-81
2024/03/31 03:54:19;;;;;;;13.73;3.67;;;;;;;;;;5096715;28;20389;-81
2024/03/31 03:56:45;;;;;;;15.18;3.78;;;;;;;;;;5096835;28;20469;-81
2024/03/31 03:59:14;;;;;;;14.23;3.63;;;;;;;;;;5096397;28;20374;-81
2024/03/31 04:01:40;;;;;;;11.57;3.30;;;;;;;;;;5096569;28;20413;-81
2024/03/31 04:04:06;;;;;;;7.72;3.03;;;;;;;;;;5078300;28;20402;-81
2024/03/31 04:06:32;;;;;;;11.10;2.88;;;;;;;;;;5096181;28;20382;-81
2024/03/31 04:08:58;;;;;;;11.88;3.13;;;;;;;;;;5096240;28;20374;-81
2024/03/31 04:11:25;;;;;;;12.03;3.03;;;;;;;;;;5096305;28;20513;-81
2024/03/31 04:13:51;;;;;;;12.52;3.15;;;;;;;;;;5096035;28;20382;-81
2024/03/31 04:16:17;;;;;;;10.18;3.00;;;;;;;;;;5096181;28;20382;-81
2024/03/31 04:18:43;;;;;;;8.83;2.57;;;;;;;;;;5096106;28;20430;-81
2024/03/31 04:21:09;;;;;;;11.13;3.10;;;;;;;;;;5095355;28;20379;-81
2024/03/31 04:23:35;;;;;;;16.30;3.08;;;;;;;;;;5096190;28;20405;-81
2024/03/31 04:26:01;;;;;;;12.80;2.80;;;;;;;;;;5096343;28;20461;-81
2024/03/31 04:28:27;;;;;;;11.88;2.63;;;;;;;;;;5095692;28;20520;-81
2024/03/31 04:30:53;;;;;;;12.80;3.27;;;;;;;;;;5095955;28;20726;-81
2024/03/31 04:33:19;;;;;;;15.15;2.92;;;;;;;;;;5095406;28;20469;-81
2024/03/31 04:35:45;;;;;;;12.35;2.92;;;;;;;;;;5096083;28;20393;-81
2024/03/31 04:38:12;;;;;;;13.98;2.83;;;;;;;;;;5095424;28;20379;-81
2024/03/31 04:40:38;;;;;;;10.95;2.58;;;;;;;;;;5095892;28;20424;-81
2024/03/31 04:43:04;;;;;;;11.03;3.00;;;;;;;;;;5095750;28;20440;-81
2024/03/31 04:45:31;;;;;;;13.27;3.08;;;;;;;;;;5095445;28;20378;-81
2024/03/31 04:48:01;;;;;;;11.63;2.97;;;;;;;;;;5095306;28;20412;-81
2024/03/31 04:50:27;;;;;;;11.68;2.70;;;;;;;;;;5095547;28;20381;-81
2024/03/31 04:52:53;;;;;;;11.15;2.65;;;;;;;;;;5095112;28;20378;-81
2024/03/31 04:55:19;;;;;;;12.30;3.20;;;;;;;;;;5095630;28;20506;-81
2024/03/31 04:57:45;;;;;;;15.57;3.35;;;;;;;;;;5095476;28;20378;-81
2024/03/31 05:00:11;;;;;;;14.63;2.80;;;;;;;;;;5095634;28;20891;-81
2024/03/31 05:02:37;;;;;;;15.73;3.03;;;;;;;;;;5095157;28;20490;-81
2024/03/31 05:05:03;;;;;;;14.45;2.72;;;;;;;;;;5095419;28;20807;-81
2024/03/31 05:07:29;;;;;;;13.13;2.83;;;;;;;;;;5095360;28;20385;-81
2024/03/31 05:09:55;;;;;;;13.80;3.38;;;;;;;;;;5095175;28;20385;-81
2024/03/31 05:12:21;;;;;;;13.18;5.20;;;;;;;;;;5095382;28;20378;-81
2024/03/31 05:14:47;;;;;;;17.63;5.05;;;;;;;;;;5095207;28;20465;-81
2024/03/31 05:17:13;;;;;;;15.98;3.03;;;;;;;;;;5095247;28;21026;-81
2024/03/31 05:19:39;;;;;;;13.90;3.25;;;;;;;;;;5095022;28;20397;-81
2024/03/31 05:22:05;;;;;;;11.52;3.10;;;;;;;;;;5094637;28;20427;-81
2024/03/31 05:24:31;;;;;;;16.97;3.17;;;;;;;;;;5092938;28;20752;-81
2024/03/31 05:26:57;;;;;;;10.27;2.60;;;;;;;;;;5094537;28;20374;-81
2024/03/31 05:29:22;;;;;;;11.38;3.00;;;;;;;;;;5094374;28;20465;-81
2024/03/31 05:31:48;;;;;;;12.98;2.95;;;;;;;;;;5093365;28;20413;-81
2024/03/31 05:34:14;;;;;;;11.07;2.65;;;;;;;;;;5095037;28;20391;-81
2024/03/31 05:36:40;;;;;;;13.45;2.88;;;;;;;;;;5094748;28;20844;-81
2024/03/31 05:39:06;;;;;;;13.02;2.90;;;;;;;;;;5094796;28;20381;-81
2024/03/31 05:41:32;;;;;;;13.18;3.05;;;;;;;;;;5094408;28;20435;-81
2024/03/31 05:43:58;;;;;;;15.53;3.43;;;;;;;;;;5094464;28;20401;-81
2024/03/31 05:46:27;;;;;;;13.63;3.00;;;;;;;;;;5094548;28;20771;-81
2024/03/31 05:48:53;;;;;;;14.27;3.10;;;;;;;;;;5094351;28;21187;-81
2024/03/31 05:51:19;;;;;;;15.93;3.10;;;;;;;;;;5094416;28;20402;-81
2024/03/31 05:53:44;;;;;;;18.05;6.97;;;;;;;;;;5094367;28;20391;-81
2024/03/31 05:56:10;;;;;;;15.05;4.22;;;;;;;;;;5094294;28;20378;-81
2024/03/31 05:58:36;;;;;;;17.02;5.50;;;;;;;;;;5093900;28;20872;-81
2024/03/31 06:01:03;;;;;;;12.97;4.03;;;;;;;;;;5093042;28;20386;-81
2024/03/31 06:03:29;;;;;;;13.70;4.95;;;;;;;;;;5093679;28;20895;-81
2024/03/31 06:05:54;;;;;;;13.05;4.28;;;;;;;;;;5093806;28;20378;-81
2024/03/31 06:08:20;;;;;;;12.75;3.55;;;;;;;;;;5093553;28;20379;-81
2024/03/31 06:10:46;;;;;;;13.07;3.53;;;;;;;;;;5094086;28;20527;-81
2024/03/31 06:13:12;;;;;;;12.32;3.47;;;;;;;;;;5093910;28;20382;-81
2024/03/31 06:15:38;;;;;;;12.80;3.50;;;;;;;;;;5076244;28;20487;-81
2024/03/31 06:18:04;;;;;;;16.02;4.20;;;;;;;;;;5093661;28;20396;-81
2024/03/31 06:20:30;;;;;;;14.43;3.63;;;;;;;;;;5093886;28;20716;-81
2024/03/31 06:22:56;;;;;;;14.15;3.55;;;;;;;;;;5093521;28;20402;-81
2024/03/31 06:25:22;;;;;;;10.68;2.90;;;;;;;;;;5093598;28;20838;-81
2024/03/31 06:27:48;;;;;;;12.82;3.38;;;;;;;;;;5093724;28;20862;-81
2024/03/31 06:30:14;;;;;;;17.90;3.42;;;;;;;;;;5094083;28;20482;-81
2024/03/31 06:32:40;;;;;;;12.57;3.10;;;;;;;;;;5093618;28;20402;-81
2024/03/31 06:35:06;;;;;;;10.53;2.73;;;;;;;;;;5093442;28;20496;-81
2024/03/31 06:37:32;;;;;;;10.23;3.03;;;;;;;;;;5093512;28;20765;-81
2024/03/31 06:39:58;;;;;;;13.00;3.28;;;;;;;;;;5093761;28;20401;-81
2024/03/31 06:42:24;;;;;;;14.23;3.10;;;;;;;;;;5093412;28;20405;-81
2024/03/31 06:44:50;;;;;;;15.63;3.63;;;;;;;;;;5092600;28;20385;-81
2024/03/31 06:47:16;;;;;;;18.05;3.92;;;;;;;;;;5093858;28;20382;-82
2024/03/31 06:49:42;;;;;;;15.45;3.42;;;;;;;;;;5093894;28;20413;-81
2024/03/31 06:52:08;;;;;;;10.10;2.83;;;;;;;;;;5093745;28;20382;-81
2024/03/31 06:54:34;;;;;;;13.05;3.00;;;;;;;;;;5093706;28;20385;-81
2024/03/31 06:57:00;;;;;;;13.45;3.10;;;;;;;;;;5093727;28;20370;-81
2024/03/31 06:59:26;;;;;;;15.30;3.33;;;;;;;;;;5093345;28;20847;-81
2024/03/31 07:01:52;;;;;;;17.00;4.40;;;;;;;;;;5093214;28;20378;-81
2024/03/31 07:04:18;;;;;;;19.63;3.70;;;;;;;;;;5093241;28;20405;-81
2024/03/31 07:06:45;;;;;;;14.32;3.70;;;;;;;;;;5094005;28;20374;-81
2024/03/31 07:09:11;;;;;;;18.80;3.28;;;;;;;;;;5093469;28;20377;-81
2024/03/31 07:11:37;;;;;;;14.13;3.00;;;;;;;;;;5094214;28;20386;-81
2024/03/31 07:14:03;;;;;;;16.83;3.22;;;;;;;;;;5097720;28;20435;-81
2024/03/31 07:16:29;;;;;;;13.20;2.83;;;;;;;;;;5096981;28;20883;-81
2024/03/31 07:18:55;;;;;;;12.50;2.85;;;;;;;;;;5097641;28;20389;-81
2024/03/31 07:21:21;;;;;;;13.25;2.92;;;;;;;;;;5097077;28;20901;-81
2024/03/31 07:23:47;;;;;;;17.13;3.50;;;;;;;;;;5097332;28;20414;-81
2024/03/31 07:26:13;;;;;;;14.15;3.08;;;;;;;;;;5097335;28;20385;-81
2024/03/31 07:28:40;;;;;;;11.70;3.30;;;;;;;;;;5096627;28;20369;-81
2024/03/31 07:31:06;;;;;;;13.48;3.05;;;;;;;;;;5096607;28;20382;-81
2024/03/31 07:33:32;;;;;;;14.87;3.60;;;;;;;;;;5096356;28;20393;-81
2024/03/31 07:36:00;;;;;;;11.80;2.58;;;;;;;;;;5096624;28;20384;-81
2024/03/31 07:38:27;;;;;;;13.23;2.95;;;;;;;;;;5096563;28;20377;-81
2024/03/31 07:40:53;;;;;;;14.90;2.90;;;;;;;;;;5096657;28;20744;-81
2024/03/31 07:43:22;;;;;;;10.50;2.85;;;;;;;;;;5096153;28;20417;-81
2024/03/31 07:45:48;;;;;;;12.73;3.28;;;;;;;;;;5095106;28;20759;-81
2024/03/31 07:48:14;;;;;;;13.43;2.63;;;;;;;;;;5096434;28;20374;-81
2024/03/31 07:50:40;;;;;;;17.52;2.88;;;;;;;;;;5095985;28;20441;-81
2024/03/31 07:53:06;;;;;;;11.00;2.53;;;;;;;;;;5095936;28;20381;-81
2024/03/31 07:55:38;;;;;;;8.63;2.00;;;;;;;;;;5096141;28;20895;-81
2024/03/31 07:58:05;;;;;;;12.05;2.70;;;;;;;;;;5095691;28;20465;-81
2024/03/31 08:00:31;;;;;;;10.52;2.25;;;;;;;;;;5095930;28;20386;-81
2024/03/31 08:02:57;;;;;;;21.33;2.83;;;;;;;;;;5096246;28;20405;-81
2024/03/31 08:05:23;;;;;;;13.75;2.70;;;;;;;;;;5096383;28;20384;-81
2024/03/31 08:07:49;;;;;;;13.02;2.97;;;;;;;;;;5096223;28;20777;-81
2024/03/31 08:10:15;;;;;;;10.38;2.47;;;;;;;;;;5095953;28;20373;-81
2024/03/31 08:12:41;;;;;;;13.33;2.73;;;;;;;;;;5095942;28;20461;-81
2024/03/31 08:15:08;;;;;;;11.15;2.60;;;;;;;;;;5095731;28;20406;-81
2024/03/31 08:17:34;;;;;;;10.27;2.10;;;;;;;;;;5095403;28;20396;-81
2024/03/31 08:19:59;;;;;;;14.30;2.60;;;;;;;;;;5095668;28;20374;-81
2024/03/31 08:22:25;;;;;;;12.65;2.63;;;;;;;;;;5095569;28;20402;-81
2024/03/31 08:24:51;;;;;;;13.32;2.42;;;;;;;;;;5094550;28;20433;-81
2024/03/31 08:27:17;;;;;;;11.67;2.43;;;;;;;;;;5095525;28;20366;-81
2024/03/31 08:29:43;;;;;;;12.15;2.55;;;;;;;;;;5095433;28;20743;-82
2024/03/31 08:32:09;;;;;;;7.65;1.80;;;;;;;;;;5096111;28;20394;-82
2024/03/31 08:34:35;;;;;;;16.20;2.63;;;;;;;;;;5096902;28;20946;-81
2024/03/31 08:37:01;;;;;;;10.27;2.40;;;;;;;;;;5096857;28;20370;-81
2024/03/31 08:39:27;;;;;;;8.10;2.28;;;;;;;;;;5094557;28;20417;-81
2024/03/31 08:42:09;;;;;;;13.55;2.72;;;;;;;;;;5096504;28;20439;-81
2024/03/31 08:44:35;;;;;;;9.77;2.45;;;;;;;;;;5096385;28;20736;-81
2024/03/31 08:47:02;;;;;;;14.60;2.53;;;;;;;;;;5096400;28;20926;-81
2024/03/31 08:49:28;;;;;;;11.02;2.33;;;;;;;;;;5096490;28;20382;-81
2024/03/31 08:51:54;;;;;;;11.13;2.20;;;;;;;;;;5096028;28;20382;-81
2024/03/31 08:54:20;;;;;;;10.77;2.22;;;;;;;;;;5096413;28;20867;-81
2024/03/31 08:56:46;;;;;;;10.35;2.70;;;;;;;;;;5096448;28;20382;-81
2024/03/31 08:59:12;;;;;;;11.70;2.20;;;;;;;;;;5096355;28;20413;-81
2024/03/31 09:01:38;;;;;;;11.98;2.40;;;;;;;;;;5096679;28;20390;-81
2024/03/31 09:04:04;;;;;;;15.38;2.63;;;;;;;;;;5096515;28;20938;-81
2024/03/31 09:06:30;;;;;;;11.50;2.22;;;;;;;;;;5096148;28;20825;-81
2024/03/31 09:09:00;;;;;;;7.88;1.95;;;;;;;;;;5096318;28;20398;-81
2024/03/31 09:11:27;;;;;;;11.30;2.63;;;;;;;;;;5096124;28;20377;-81
2024/03/31 09:13:53;;;;;;;10.05;2.40;;;;;;;;;;5095840;28;20819;-81
2024/03/31 09:16:19;;;;;;;7.20;2.13;;;;;;;;;;5096648;28;20732;-81
2024/03/31 09:18:45;;;;;;;9.88;2.00;;;;;;;;;;5096216;28;20370;-81
2024/03/31 09:21:11;;;;;;;16.13;2.88;;;;;;;;;;5095849;28;20480;-81
2024/03/31 09:23:38;;;;;;;11.70;2.23;;;;;;;;;;5095065;28;20406;-81
2024/03/31 09:26:04;;;;;;;12.10;2.05;;;;;;;;;;5096265;28;20393;-81
2024/03/31 09:28:30;;;;;;;8.60;2.50;;;;;;;;;;5095834;28;20423;-81
2024/03/31 09:30:56;;;;;;;8.90;2.30;;;;;;;;;;5096550;28;20418;-81
2024/03/31 09:33:23;;;;;;;9.25;2.60;;;;;;;;;;5095509;28;20409;-81
2024/03/31 09:35:50;;;;;;;9.38;2.38;;;;;;;;;;5095554;28;20780;-81
2024/03/31 09:38:16;;;;;;;8.82;2.10;;;;;;;;;;5095864;28;20374;-82
2024/03/31 09:40:43;;;;;;;11.20;2.13;;;;;;;;;;5095671;28;20374;-81
2024/03/31 09:43:09;;;;;;;9.65;2.40;;;;;;;;;;5095614;28;20936;-81
2024/03/31 09:45:35;;;;;;;11.52;2.15;;;;;;;;;;5095967;28;20374;-81
2024/03/31 09:48:09;;;;;;;8.70;2.22;;;;;;;;;;5096046;28;20431;-81
2024/03/31 09:50:58;;;;;;;12.40;2.65;;;;;;;;;;5095632;28;20412;-81
2024/03/31 09:53:27;;;;;;;11.03;2.30;;;;;;;;;;5083372;28;20449;-81
2024/03/31 09:55:56;;;;;;;13.20;2.53;;;;;;;;;;5095695;28;20389;-81
2024/03/31 09:58:22;;;;;;;8.43;2.25;;;;;;;;;;5095248;28;20385;-81
2024/03/31 10:00:48;;;;;;;8.15;2.53;;;;;;;;;;5095628;28;20443;-82
2024/03/31 10:03:21;;;;;;;9.43;2.20;;;;;;;;;;5095216;28;20871;-82
2024/03/31 10:05:47;;;;;;;9.90;2.00;;;;;;;;;;5095099;28;20403;-82
2024/03/31 10:08:14;;;;;;;9.60;2.20;;;;;;;;;;5095069;28;20381;-82
2024/03/31 10:10:40;;;;;;;10.73;2.55;;;;;;;;;;5095319;28;20374;-82
2024/03/31 10:13:06;;;;;;;11.73;2.50;;;;;;;;;;5095024;28;20477;-82
2024/03/31 10:15:33;;;;;;;10.02;2.45;;;;;;;;;;5095423;28;20818;-82
2024/03/31 10:18:00;;;;;;;14.27;2.70;;;;;;;;;;5095078;28;20413;-81
2024/03/31 10:20:27;;;;;;;8.15;2.60;;;;;;;;;;5095541;28;20382;-82
2024/03/31 10:22:57;;;;;;;8.75;2.17;;;;;;;;;;5095151;28;20487;-81
2024/03/31 10:25:24;;;;;;;11.15;2.55;;;;;;;;;;5094962;28;20741;-82
2024/03/31 10:27:51;;;;;;;8.20;2.08;;;;;;;;;;5095369;28;20385;-82
2024/03/31 10:30:17;;;;;;;10.95;2.20;;;;;;;;;;5094834;28;20747;-82
2024/03/31 10:32:43;;;;;;;12.45;2.53;;;;;;;;;;5095153;28;20410;-82
2024/03/31 10:35:09;;;;;;;9.00;1.80;;;;;;;;;;5094790;28;20408;-81
2024/03/31 10:37:36;;;;;;;8.98;2.20;;;;;;;;;;5094844;28;20369;-82
2024/03/31 10:40:04;;;;;;;12.93;1.92;;;;;;;;;;5094515;28;20378;-82
2024/03/31 10:42:30;;;;;;;12.18;2.72;;;;;;;;;;5094800;28;20755;-81
2024/03/31 10:44:56;;;;;;;9.03;2.60;;;;;;;;;;5094967;28;20976;-81
2024/03/31 10:47:22;;;;;;;8.98;2.45;;;;;;;;;;5099013;28;20374;-81
2024/03/31 10:49:56;;;;;;;7.93;2.10;;;;;;;;;;5101142;28;20374;-82
2024/03/31 10:52:24;;;;;;;10.07;2.50;;;;;;;;;;5101026;28;20725;-81
2024/03/31 10:54:52;;;;;;;10.10;2.20;;;;;;;;;;5101160;28;20400;-81
2024/03/31 10:57:18;;;;;;;10.40;2.93;;;;;;;;;;5101537;28;20405;-81
2024/03/31 10:59:44;;;;;;;10.60;2.88;;;;;;;;;;5101254;28;20382;-81
2024/03/31 11:02:17;;;;;;;14.30;2.90;;;;;;;;;;5101114;28;20401;-81
2024/03/31 11:04:44;;;;;;;10.32;2.42;;;;;;;;;;5100250;28;20380;-81
2024/03/31 11:07:13;;;;;;;8.57;2.60;;;;;;;;;;5100701;28;20378;-82
2024/03/31 11:09:41;;;;;;;7.90;2.17;;;;;;;;;;5100813;28;20369;-82
2024/03/31 11:12:07;;;;;;;8.65;2.25;;;;;;;;;;5101368;28;20677;-82
2024/03/31 11:14:34;;;;;;;10.13;2.47;;;;;;;;;;5101471;28;20454;-82
2024/03/31 11:17:00;;;;;;;8.88;2.55;;;;;;;;;;5100824;28;20377;-81
2024/03/31 11:19:27;;;;;;;9.90;2.40;;;;;;;;;;5100537;28;20373;-81
2024/03/31 11:21:56;;;;;;;10.85;2.65;;;;;;;;;;5100726;28;20492;-81
2024/03/31 11:24:23;;;;;;;11.32;2.40;;;;;;;;;;5100814;28;20436;-82
2024/03/31 11:26:50;;;;;;;12.90;3.08;;;;;;;;;;5099555;28;20382;-82
2024/03/31 11:29:17;;;;;;;12.20;3.08;;;;;;;;;;5100591;28;20374;-82
2024/03/31 11:31:44;;;;;;;10.13;2.65;;;;;;;;;;5101090;28;20413;-82
2024/03/31 11:34:10;;;;;;;12.98;2.72;;;;;;;;;;5100794;28;20378;-82
2024/03/31 11:36:37;;;;;;;9.80;2.83;;;;;;;;;;5100730;28;20386;-82
2024/03/31 11:39:03;;;;;;;9.27;2.40;;;;;;;;;;5100965;28;20400;-82
2024/03/31 11:41:29;;;;;;;12.52;2.95;;;;;;;;;;5101279;28;20389;-82
2024/03/31 11:43:55;;;;;;;8.65;2.22;;;;;;;;;;5100369;28;20424;-82
2024/03/31 11:46:21;;;;;;;9.10;2.80;;;;;;;;;;5100762;28;20832;-82
2024/03/31 11:48:47;;;;;;;11.50;2.95;;;;;;;;;;5100434;28;20389;-82
2024/03/31 11:51:13;;;;;;;9.93;3.20;;;;;;;;;;5100803;28;20393;-82
2024/03/31 11:53:39;;;;;;;13.43;3.00;;;;;;;;;;5100664;28;20879;-82
2024/03/31 11:56:06;;;;;;;11.50;2.28;;;;;;;;;;5100614;28;20882;-82
2024/03/31 11:58:36;;;;;;;10.63;2.65;;;;;;;;;;5098128;28;20394;-82
2024/03/31 12:01:02;;;;;;;12.13;2.80;;;;;;;;;;5097560;28;20889;-82
2024/03/31 12:03:28;;;;;;;9.87;2.67;;;;;;;;;;5097992;28;20577;-82
2024/03/31 12:05:54;;;;;;;9.65;2.50;;;;;;;;;;5097707;28;20382;-82
2024/03/31 12:08:20;;;;;;;9.18;2.65;;;;;;;;;;5097400;28;20421;-82
2024/03/31 12:10:46;;;;;;;11.23;2.70;;;;;;;;;;5097626;28;20366;-82
2024/03/31 12:13:13;;;;;;;15.50;2.42;;;;;;;;;;5097936;28;20712;-82
2024/03/31 12:15:39;;;;;;;8.98;2.45;;;;;;;;;;5097917;28;20739;-82
2024/03/31 12:18:05;;;;;;;9.13;2.30;;;;;;;;;;5097822;28;20394;-82
2024/03/31 12:20:31;;;;;;;11.90;1.80;;;;;;;;;;5097597;28;20430;-82
2024/03/31 12:22:57;;;;;;;8.52;2.42;;;;;;;;;;5097398;28;20425;-82
2024/03/31 12:25:24;;;;;;;7.87;2.00;;;;;;;;;;5097571;28;20397;-82
2024/03/31 12:27:50;;;;;;;10.68;2.80;;;;;;;;;;5097091;28;20382;-84
2024/03/31 12:30:16;;;;;;;8.80;2.73;;;;;;;;;;5096719;28;20377;-82
2024/03/31 12:32:42;;;;;;;8.23;2.92;;;;;;;;;;5097506;28;20947;-82
2024/03/31 12:35:08;;;;;;;13.48;2.75;;;;;;;;;;5097364;28;20465;-82
2024/03/31 12:37:37;;;;;;;13.82;2.53;;;;;;;;;;5096632;28;20917;-82
2024/03/31 12:40:06;;;;;;;8.35;2.15;;;;;;;;;;5096897;28;20374;-82
2024/03/31 12:42:32;;;;;;;21.45;10.85;;;;;;;;;;5096938;28;20942;-82
2024/03/31 12:44:59;;;;;;;12.27;4.53;;;;;;;;;;5096671;28;20406;-82
2024/03/31 12:47:25;;;;;;;22.50;12.40;;;;;;;;;;5096976;28;20532;-82
2024/03/31 12:49:51;;;;;;;9.82;3.17;;;;;;;;;;5096775;28;20427;-82
2024/03/31 12:52:17;;;;;;;9.77;2.22;;;;;;;;;;5096109;28;20386;-82
2024/03/31 12:54:44;;;;;;;8.48;2.10;;;;;;;;;;5095465;28;20370;-82
2024/03/31 12:57:10;;;;;;;9.20;2.25;;;;;;;;;;5094533;28;20382;-81
2024/03/31 12:59:37;;;;;;;8.18;2.20;;;;;;;;;;5095588;28;20851;-81
2024/03/31 13:02:03;;;;;;;7.82;1.90;;;;;;;;;;5095999;28;20430;-81
2024/03/31 13:04:29;;;;;;;10.52;2.15;;;;;;;;;;5095613;28;20437;-81
2024/03/31 13:06:55;;;;;;;8.77;2.03;;;;;;;;;;5096397;28;20862;-81
2024/03/31 13:09:21;;;;;;;6.03;1.70;;;;;;;;;;5096516;28;20461;-81
2024/03/31 13:11:48;;;;;;;4.93;1.50;;;;;;;;;;5095897;28;20408;-81
2024/03/31 13:14:14;;;;;;;7.30;3.60;;;;;;;;;;5096133;28;20382;-81
2024/03/31 13:16:41;;;;;;;6.45;1.85;;;;;;;;;;5095913;28;20413;-81
2024/03/31 13:19:07;;;;;;;6.57;1.40;;;;;;;;;;5095493;28;20374;-81
2024/03/31 13:21:34;;;;;;;4.10;1.65;;;;;;;;;;5096079;28;20394;-81
2024/03/31 13:24:00;;;;;;;6.25;1.67;;;;;;;;;;5085264;28;20415;-81
2024/03/31 13:26:26;;;;;;;5.88;2.65;;;;;;;;;;5092054;28;20712;-81
2024/03/31 13:28:52;;;;;;;40.15;26.80;;;;;;;;;;5096028;28;20381;-81
2024/03/31 13:31:18;;;;;;;14.73;9.10;;;;;;;;;;5095573;28;20378;-81
2024/03/31 13:33:44;;;;;;;28.70;18.98;;;;;;;;;;5095936;28;20867;-81
2024/03/31 13:36:10;;;;;;;8.13;2.00;;;;;;;;;;5096181;28;20412;-81
2024/03/31 13:38:36;;;;;;;5.83;2.00;;;;;;;;;;5095069;28;20857;-81
2024/03/31 13:41:02;;;;;;;6.45;1.58;;;;;;;;;;5095582;28;20386;-81
2024/03/31 13:43:28;;;;;;;4.18;1.00;;;;;;;;;;5095187;28;20810;-81
2024/03/31 13:45:55;;;;;;;12.68;4.07;;;;;;;;;;5095762;28;20366;-81
2024/03/31 13:48:21;;;;;;;4.60;1.38;;;;;;;;;;5095201;28;20494;-81
2024/03/31 13:50:47;;;;;;;5.40;1.00;;;;;;;;;;5095422;28;20446;-81
2024/03/31 13:53:13;;;;;;;4.85;0.82;;;;;;;;;;5095565;28;20869;-81
2024/03/31 13:55:39;;;;;;;4.13;0.90;;;;;;;;;;5095448;28;20392;-81
2024/03/31 13:58:05;;;;;;;3.67;0.68;;;;;;;;;;5096018;28;20397;-81
2024/03/31 14:00:31;;;;;;;1.80;0.75;;;;;;;;;;5095866;28;20381;-81
2024/03/31 14:02:57;;;;;;;2.83;0.80;;;;;;;;;;5094712;28;20402;-81
2024/03/31 14:05:23;;;;;;;2.67;0.40;;;;;;;;;;5095878;28;20406;-81
2024/03/31 14:07:49;;;;;;;1.55;0.40;;;;;;;;;;5095319;28;20385;-81
2024/03/31 14:10:15;;;;;;;1.98;0.50;;;;;;;;;;5095161;28;20385;-81
2024/03/31 14:12:43;;;;;;;0.88;0.40;;;;;;;;;;5095546;28;20434;-81
2024/03/31 14:15:09;;;;;;;1.83;0.50;;;;;;;;;;5095010;28;20382;-81
2024/03/31 14:17:36;;;;;;;2.88;0.40;;;;;;;;;;5094814;28;20455;-81
2024/03/31 14:20:02;;;;;;;1.55;0.30;;;;;;;;;;5095116;28;20937;-81
2024/03/31 14:22:28;;;;;;;3.15;0.50;;;;;;;;;;5094852;28;20782;-81
2024/03/31 14:24:54;;;;;;;1.98;0.60;;;;;;;;;;5095542;28;20381;-81
2024/03/31 14:27:20;;;;;;;2.28;0.50;;;;;;;;;;5095455;28;20382;-81